sensor_id;sensor_type;location;lat;lon;timestamp;pressure;altitude;pressure_sealevel;temperature;humidity
13407;BME280;6774;48.208;10.766;2023-07-20T00:02:15;95371.69;;;21.46;60.77
13407;BME280;6774;48.208;10.766;2023-07-20T00:04:42;95370.84;;;21.40;61.04
13407;BME280;6774;48.208;10.766;2023-07-20T00:07:10;95369.03;;;21.51;60.99
13407;BME280;6774;48.208;10.766;2023-07-20T00:09:38;95375.47;;;21.50;60.94
13407;BME280;6774;48.208;10.766;2023-07-20T00:12:07;95371.22;;;21.59;61.03
13407;BME280;6774;48.208;10.766;2023-07-20T00:14:35;95373.28;;;21.42;61.21
13407;BME280;6774;48.208;10.766;2023-07-20T00:17:02;95373.28;;;21.47;61.95
13407;BME280;6774;48.208;10.766;2023-07-20T00:19:32;95379.13;;;21.34;62.47
13407;BME280;6774;48.208;10.766;2023-07-20T00:21:59;95371.59;;;21.31;62.62
13407;BME280;6774;48.208;10.766;2023-07-20T00:24:28;95377.22;;;21.02;62.50
13407;BME280;6774;48.208;10.766;2023-07-20T00:26:56;95376.59;;;20.90;62.35
13407;BME280;6774;48.208;10.766;2023-07-20T00:29:24;95381.75;;;20.96;61.51
13407;BME280;6774;48.208;10.766;2023-07-20T00:31:51;95379.63;;;20.98;60.32
13407;BME280;6774;48.208;10.766;2023-07-20T00:34:19;95379.44;;;21.10;59.63
13407;BME280;6774;48.208;10.766;2023-07-20T00:36:48;95383.66;;;21.01;59.60
13407;BME280;6774;48.208;10.766;2023-07-20T00:39:16;95394.91;;;20.98;59.56
13407;BME280;6774;48.208;10.766;2023-07-20T00:41:44;95393.13;;;20.77;60.61
13407;BME280;6774;48.208;10.766;2023-07-20T00:44:12;95385.00;;;20.71;60.00
13407;BME280;6774;48.208;10.766;2023-07-20T00:46:40;95381.16;;;20.89;59.95
13407;BME280;6774;48.208;10.766;2023-07-20T00:49:11;95384.66;;;20.90;59.66
13407;BME280;6774;48.208;10.766;2023-07-20T00:51:38;95376.59;;;20.90;59.42
13407;BME280;6774;48.208;10.766;2023-07-20T00:54:09;95378.03;;;20.70;59.88
13407;BME280;6774;48.208;10.766;2023-07-20T00:56:37;95380.25;;;20.79;59.63
13407;BME280;6774;48.208;10.766;2023-07-20T00:59:05;95379.47;;;20.83;58.78
13407;BME280;6774;48.208;10.766;2023-07-20T01:01:34;95377.59;;;20.84;59.14
13407;BME280;6774;48.208;10.766;2023-07-20T01:04:01;95372.88;;;20.64;58.94
13407;BME280;6774;48.208;10.766;2023-07-20T01:06:36;95383.16;;;20.72;59.43
13407;BME280;6774;48.208;10.766;2023-07-20T01:09:13;95386.59;;;20.67;60.00
13407;BME280;6774;48.208;10.766;2023-07-20T01:11:49;95385.09;;;20.82;59.15
13407;BME280;6774;48.208;10.766;2023-07-20T01:14:21;95390.28;;;20.88;59.56
13407;BME280;6774;48.208;10.766;2023-07-20T01:16:51;95393.03;;;20.98;59.42
13407;BME280;6774;48.208;10.766;2023-07-20T01:19:19;95390.06;;;20.95;60.22
13407;BME280;6774;48.208;10.766;2023-07-20T01:21:52;95400.81;;;20.95;60.12
13407;BME280;6774;48.208;10.766;2023-07-20T01:24:44;95392.16;;;20.88;60.81
13407;BME280;6774;48.208;10.766;2023-07-20T01:27:49;95393.63;;;20.73;61.48
13407;BME280;6774;48.208;10.766;2023-07-20T01:33:31;95394.78;;;20.34;62.24
13407;BME280;6774;48.208;10.766;2023-07-20T01:36:01;95390.94;;;20.47;61.70
13407;BME280;6774;48.208;10.766;2023-07-20T01:38:29;95385.38;;;20.31;62.08
13407;BME280;6774;48.208;10.766;2023-07-20T01:40:58;95384.06;;;20.34;60.80
13407;BME280;6774;48.208;10.766;2023-07-20T01:43:26;95385.16;;;20.38;61.80
13407;BME280;6774;48.208;10.766;2023-07-20T01:45:54;95388.50;;;20.23;61.81
13407;BME280;6774;48.208;10.766;2023-07-20T01:48:21;95386.09;;;20.43;61.79
13407;BME280;6774;48.208;10.766;2023-07-20T01:50:51;95390.47;;;20.55;61.95
13407;BME280;6774;48.208;10.766;2023-07-20T01:53:20;95391.34;;;20.38;61.61
13407;BME280;6774;48.208;10.766;2023-07-20T01:55:48;95383.63;;;20.42;62.25
13407;BME280;6774;48.208;10.766;2023-07-20T01:58:16;95377.00;;;20.23;62.08
13407;BME280;6774;48.208;10.766;2023-07-20T02:00:44;95387.97;;;20.21;62.13
13407;BME280;6774;48.208;10.766;2023-07-20T02:03:11;95390.38;;;20.23;61.86
13407;BME280;6774;48.208;10.766;2023-07-20T02:05:39;95398.91;;;20.20;62.04
13407;BME280;6774;48.208;10.766;2023-07-20T02:08:10;95389.97;;;20.36;61.40
13407;BME280;6774;48.208;10.766;2023-07-20T02:10:38;95397.78;;;20.15;61.16
13407;BME280;6774;48.208;10.766;2023-07-20T02:13:06;95389.69;;;20.10;61.64
13407;BME280;6774;48.208;10.766;2023-07-20T02:15:34;95388.19;;;20.20;62.09
13407;BME280;6774;48.208;10.766;2023-07-20T02:18:01;95393.78;;;20.40;61.26
13407;BME280;6774;48.208;10.766;2023-07-20T02:20:33;95383.56;;;20.37;62.03
13407;BME280;6774;48.208;10.766;2023-07-20T02:23:01;95391.59;;;20.37;62.24
13407;BME280;6774;48.208;10.766;2023-07-20T02:25:30;95392.91;;;20.34;62.47
13407;BME280;6774;48.208;10.766;2023-07-20T02:27:58;95394.59;;;20.40;62.27
13407;BME280;6774;48.208;10.766;2023-07-20T02:30:26;95387.84;;;20.38;62.34
13407;BME280;6774;48.208;10.766;2023-07-20T02:32:54;95401.53;;;20.14;63.82
13407;BME280;6774;48.208;10.766;2023-07-20T02:35:25;95398.34;;;20.17;63.65
13407;BME280;6774;48.208;10.766;2023-07-20T02:37:53;95400.78;;;19.97;64.69
13407;BME280;6774;48.208;10.766;2023-07-20T02:40:21;95404.19;;;19.71;66.50
13407;BME280;6774;48.208;10.766;2023-07-20T02:42:50;95400.91;;;19.30;68.79
13407;BME280;6774;48.208;10.766;2023-07-20T02:45:18;95401.88;;;19.24;69.11
13407;BME280;6774;48.208;10.766;2023-07-20T02:47:46;95409.72;;;18.97;70.14
13407;BME280;6774;48.208;10.766;2023-07-20T02:50:14;95403.66;;;19.01;69.48
13407;BME280;6774;48.208;10.766;2023-07-20T02:52:42;95407.91;;;18.69;69.51
13407;BME280;6774;48.208;10.766;2023-07-20T02:55:10;95413.84;;;18.71;67.97
13407;BME280;6774;48.208;10.766;2023-07-20T02:57:37;95414.84;;;18.98;63.48
13407;BME280;6774;48.208;10.766;2023-07-20T03:00:08;95422.13;;;19.20;62.50
13407;BME280;6774;48.208;10.766;2023-07-20T03:02:35;95416.16;;;19.13;61.48
13407;BME280;6774;48.208;10.766;2023-07-20T03:05:04;95414.75;;;19.10;60.57
13407;BME280;6774;48.208;10.766;2023-07-20T03:07:33;95417.22;;;19.12;59.33
13407;BME280;6774;48.208;10.766;2023-07-20T03:10:01;95415.81;;;19.26;59.17
13407;BME280;6774;48.208;10.766;2023-07-20T03:12:30;95419.19;;;19.38;58.56
13407;BME280;6774;48.208;10.766;2023-07-20T03:14:57;95424.56;;;19.38;59.02
13407;BME280;6774;48.208;10.766;2023-07-20T03:17:27;95419.13;;;19.33;59.59
13407;BME280;6774;48.208;10.766;2023-07-20T03:19:55;95429.59;;;19.18;58.60
13407;BME280;6774;48.208;10.766;2023-07-20T03:22:23;95420.66;;;19.29;58.25
13407;BME280;6774;48.208;10.766;2023-07-20T03:24:51;95430.41;;;19.35;58.49
13407;BME280;6774;48.208;10.766;2023-07-20T03:27:20;95429.75;;;19.28;59.11
13407;BME280;6774;48.208;10.766;2023-07-20T03:29:47;95431.22;;;19.19;59.23
13407;BME280;6774;48.208;10.766;2023-07-20T03:32:15;95433.16;;;19.23;59.22
13407;BME280;6774;48.208;10.766;2023-07-20T03:34:44;95441.09;;;19.35;58.83
13407;BME280;6774;48.208;10.766;2023-07-20T03:37:13;95441.09;;;19.35;59.06
13407;BME280;6774;48.208;10.766;2023-07-20T03:39:41;95443.94;;;19.45;59.11
13407;BME280;6774;48.208;10.766;2023-07-20T03:42:09;95447.13;;;19.42;59.40
13407;BME280;6774;48.208;10.766;2023-07-20T03:44:36;95447.75;;;19.49;59.65
13407;BME280;6774;48.208;10.766;2023-07-20T03:47:07;95449.69;;;19.37;60.02
13407;BME280;6774;48.208;10.766;2023-07-20T03:49:35;95436.41;;;19.42;59.47
13407;BME280;6774;48.208;10.766;2023-07-20T03:52:05;95451.16;;;19.28;60.30
13407;BME280;6774;48.208;10.766;2023-07-20T03:54:33;95449.38;;;19.33;60.52
13407;BME280;6774;48.208;10.766;2023-07-20T03:57:01;95442.97;;;19.35;60.59
13407;BME280;6774;48.208;10.766;2023-07-20T03:59:28;95455.53;;;19.34;60.71
13407;BME280;6774;48.208;10.766;2023-07-20T04:01:56;95444.34;;;19.37;61.09
13407;BME280;6774;48.208;10.766;2023-07-20T04:04:24;95448.41;;;19.23;62.43
13407;BME280;6774;48.208;10.766;2023-07-20T04:06:52;95451.34;;;19.21;62.69
13407;BME280;6774;48.208;10.766;2023-07-20T04:09:21;95459.94;;;19.23;62.63
13407;BME280;6774;48.208;10.766;2023-07-20T04:11:49;95453.66;;;19.18;63.16
13407;BME280;6774;48.208;10.766;2023-07-20T04:14:17;95453.50;;;19.08;63.51
13407;BME280;6774;48.208;10.766;2023-07-20T04:16:46;95460.72;;;19.07;64.04
13407;BME280;6774;48.208;10.766;2023-07-20T04:19:14;95462.03;;;19.04;64.46
13407;BME280;6774;48.208;10.766;2023-07-20T04:21:44;95459.56;;;18.86;66.13
13407;BME280;6774;48.208;10.766;2023-07-20T04:24:12;95456.22;;;18.79;66.87
13407;BME280;6774;48.208;10.766;2023-07-20T04:26:41;95456.59;;;18.71;67.58
13407;BME280;6774;48.208;10.766;2023-07-20T04:29:09;95461.47;;;18.74;66.90
13407;BME280;6774;48.208;10.766;2023-07-20T04:31:40;95469.03;;;18.77;66.51
13407;BME280;6774;48.208;10.766;2023-07-20T04:34:08;95473.16;;;18.44;66.87
13407;BME280;6774;48.208;10.766;2023-07-20T04:36:36;95465.47;;;18.60;64.66
13407;BME280;6774;48.208;10.766;2023-07-20T04:39:04;95467.63;;;18.63;64.04
13407;BME280;6774;48.208;10.766;2023-07-20T04:41:46;95459.84;;;18.73;64.05
13407;BME280;6774;48.208;10.766;2023-07-20T04:44:15;95470.72;;;18.83;63.70
13407;BME280;6774;48.208;10.766;2023-07-20T04:46:43;95473.00;;;18.91;64.29
13407;BME280;6774;48.208;10.766;2023-07-20T04:49:13;95475.03;;;18.84;65.14
13407;BME280;6774;48.208;10.766;2023-07-20T04:51:43;95474.94;;;18.79;64.58
13407;BME280;6774;48.208;10.766;2023-07-20T04:54:11;95469.25;;;18.64;64.57
13407;BME280;6774;48.208;10.766;2023-07-20T04:56:40;95472.63;;;18.71;63.82
13407;BME280;6774;48.208;10.766;2023-07-20T04:59:11;95490.28;;;18.72;63.97
13407;BME280;6774;48.208;10.766;2023-07-20T05:01:39;95482.53;;;18.70;64.05
13407;BME280;6774;48.208;10.766;2023-07-20T05:04:08;95482.47;;;18.82;62.96
13407;BME280;6774;48.208;10.766;2023-07-20T05:06:36;95489.16;;;18.68;63.38
13407;BME280;6774;48.208;10.766;2023-07-20T05:09:05;95485.31;;;18.92;62.80
13407;BME280;6774;48.208;10.766;2023-07-20T05:11:34;95494.00;;;18.99;61.64
13407;BME280;6774;48.208;10.766;2023-07-20T05:14:02;95488.28;;;19.08;61.71
13407;BME280;6774;48.208;10.766;2023-07-20T05:16:31;95484.50;;;18.92;61.30
13407;BME280;6774;48.208;10.766;2023-07-20T05:19:02;95493.94;;;18.94;63.41
13407;BME280;6774;48.208;10.766;2023-07-20T05:21:30;95489.03;;;19.37;61.13
13407;BME280;6774;48.208;10.766;2023-07-20T05:23:58;95489.78;;;19.32;61.42
13407;BME280;6774;48.208;10.766;2023-07-20T05:26:27;95491.31;;;19.45;61.51
13407;BME280;6774;48.208;10.766;2023-07-20T05:28:54;95491.72;;;19.53;60.61
13407;BME280;6774;48.208;10.766;2023-07-20T05:31:22;95494.47;;;19.42;61.42
13407;BME280;6774;48.208;10.766;2023-07-20T05:33:52;95483.69;;;19.70;60.73
13407;BME280;6774;48.208;10.766;2023-07-20T05:36:20;95483.94;;;19.52;60.59
13407;BME280;6774;48.208;10.766;2023-07-20T05:38:48;95489.88;;;19.71;59.26
13407;BME280;6774;48.208;10.766;2023-07-20T05:41:16;95493.00;;;19.51;61.27
13407;BME280;6774;48.208;10.766;2023-07-20T05:43:44;95498.03;;;19.81;61.06
13407;BME280;6774;48.208;10.766;2023-07-20T05:46:11;95494.94;;;19.55;60.37
13407;BME280;6774;48.208;10.766;2023-07-20T05:48:39;95492.03;;;19.40;60.69
13407;BME280;6774;48.208;10.766;2023-07-20T05:51:09;95500.47;;;19.32;61.16
13407;BME280;6774;48.208;10.766;2023-07-20T05:53:36;95492.19;;;19.33;61.13
13407;BME280;6774;48.208;10.766;2023-07-20T05:56:05;95490.97;;;19.41;61.24
13407;BME280;6774;48.208;10.766;2023-07-20T05:58:32;95490.72;;;19.26;60.40
13407;BME280;6774;48.208;10.766;2023-07-20T06:01:00;95487.31;;;19.14;60.78
13407;BME280;6774;48.208;10.766;2023-07-20T06:03:28;95499.25;;;19.23;61.02
13407;BME280;6774;48.208;10.766;2023-07-20T06:05:58;95499.25;;;19.40;59.93
13407;BME280;6774;48.208;10.766;2023-07-20T06:08:28;95505.22;;;19.58;60.09
13407;BME280;6774;48.208;10.766;2023-07-20T06:10:56;95503.09;;;19.60;60.73
13407;BME280;6774;48.208;10.766;2023-07-20T06:13:24;95502.94;;;19.67;61.03
13407;BME280;6774;48.208;10.766;2023-07-20T06:15:51;95509.81;;;19.63;61.38
13407;BME280;6774;48.208;10.766;2023-07-20T06:18:20;95506.00;;;19.42;61.53
13407;BME280;6774;48.208;10.766;2023-07-20T06:20:49;95508.44;;;19.60;61.64
13407;BME280;6774;48.208;10.766;2023-07-20T06:23:18;95511.38;;;19.59;61.89
13407;BME280;6774;48.208;10.766;2023-07-20T06:25:47;95508.09;;;19.74;59.86
13407;BME280;6774;48.208;10.766;2023-07-20T06:28:15;95496.78;;;19.67;61.23
13407;BME280;6774;48.208;10.766;2023-07-20T06:30:44;95499.81;;;19.92;60.38
13407;BME280;6774;48.208;10.766;2023-07-20T06:33:12;95503.13;;;19.99;61.31
13407;BME280;6774;48.208;10.766;2023-07-20T06:35:41;95501.50;;;19.98;59.14
13407;BME280;6774;48.208;10.766;2023-07-20T06:38:09;95499.06;;;20.13;60.46
13407;BME280;6774;48.208;10.766;2023-07-20T06:40:40;95502.06;;;20.00;59.35
13407;BME280;6774;48.208;10.766;2023-07-20T06:43:09;95507.69;;;20.21;60.08
13407;BME280;6774;48.208;10.766;2023-07-20T06:45:39;95496.00;;;20.27;60.12
13407;BME280;6774;48.208;10.766;2023-07-20T06:48:07;95497.41;;;20.51;58.23
13407;BME280;6774;48.208;10.766;2023-07-20T06:50:35;95502.53;;;20.53;61.40
13407;BME280;6774;48.208;10.766;2023-07-20T06:53:03;95501.75;;;20.57;58.67
13407;BME280;6774;48.208;10.766;2023-07-20T06:55:30;95492.53;;;20.48;59.50
13407;BME280;6774;48.208;10.766;2023-07-20T06:58:09;95494.41;;;20.69;59.11
13407;BME280;6774;48.208;10.766;2023-07-20T07:00:36;95495.28;;;20.53;57.83
13407;BME280;6774;48.208;10.766;2023-07-20T07:03:04;95498.31;;;20.84;58.45
13407;BME280;6774;48.208;10.766;2023-07-20T07:05:35;95487.44;;;20.95;58.21
13407;BME280;6774;48.208;10.766;2023-07-20T07:08:04;95489.16;;;20.80;58.35
13407;BME280;6774;48.208;10.766;2023-07-20T07:10:32;95493.09;;;20.99;58.17
13407;BME280;6774;48.208;10.766;2023-07-20T07:13:00;95492.22;;;20.66;59.34
13407;BME280;6774;48.208;10.766;2023-07-20T07:15:30;95494.78;;;20.78;57.15
13407;BME280;6774;48.208;10.766;2023-07-20T07:17:58;95490.06;;;20.90;57.45
13407;BME280;6774;48.208;10.766;2023-07-20T07:20:27;95496.97;;;21.08;57.26
13407;BME280;6774;48.208;10.766;2023-07-20T07:22:55;95500.00;;;21.17;56.58
13407;BME280;6774;48.208;10.766;2023-07-20T07:25:23;95498.72;;;21.24;56.50
13407;BME280;6774;48.208;10.766;2023-07-20T07:27:52;95495.84;;;21.04;57.64
13407;BME280;6774;48.208;10.766;2023-07-20T07:30:20;95489.34;;;21.54;56.08
13407;BME280;6774;48.208;10.766;2023-07-20T07:32:49;95495.63;;;21.70;57.97
13407;BME280;6774;48.208;10.766;2023-07-20T07:35:17;95486.56;;;22.13;56.44
13407;BME280;6774;48.208;10.766;2023-07-20T07:37:45;95479.66;;;22.32;55.33
13407;BME280;6774;48.208;10.766;2023-07-20T07:40:32;95484.44;;;21.83;55.45
13407;BME280;6774;48.208;10.766;2023-07-20T07:42:59;95488.56;;;21.96;56.65
13407;BME280;6774;48.208;10.766;2023-07-20T07:45:27;95482.22;;;21.70;56.68
13407;BME280;6774;48.208;10.766;2023-07-20T07:47:57;95487.69;;;22.27;53.10
13407;BME280;6774;48.208;10.766;2023-07-20T07:50:24;95490.28;;;22.12;55.53
13407;BME280;6774;48.208;10.766;2023-07-20T07:52:53;95486.44;;;22.03;54.96
13407;BME280;6774;48.208;10.766;2023-07-20T07:55:21;95496.47;;;21.75;56.00
13407;BME280;6774;48.208;10.766;2023-07-20T07:57:49;95486.69;;;22.01;55.02
13407;BME280;6774;48.208;10.766;2023-07-20T08:00:18;95494.16;;;21.52;55.52
13407;BME280;6774;48.208;10.766;2023-07-20T08:02:46;95498.91;;;21.40;55.89
13407;BME280;6774;48.208;10.766;2023-07-20T08:05:16;95497.00;;;21.72;57.00
13407;BME280;6774;48.208;10.766;2023-07-20T08:07:44;95488.63;;;22.06;54.83
13407;BME280;6774;48.208;10.766;2023-07-20T08:10:13;95482.13;;;21.97;54.80
13407;BME280;6774;48.208;10.766;2023-07-20T08:12:40;95491.03;;;21.65;57.23
13407;BME280;6774;48.208;10.766;2023-07-20T08:15:11;95501.94;;;21.85;55.32
13407;BME280;6774;48.208;10.766;2023-07-20T08:17:38;95494.25;;;22.04;56.69
13407;BME280;6774;48.208;10.766;2023-07-20T08:20:08;95495.78;;;22.32;52.10
13407;BME280;6774;48.208;10.766;2023-07-20T08:22:39;95490.28;;;22.12;56.06
13407;BME280;6774;48.208;10.766;2023-07-20T08:25:08;95503.56;;;22.29;53.80
13407;BME280;6774;48.208;10.766;2023-07-20T08:27:36;95495.56;;;22.02;55.06
13407;BME280;6774;48.208;10.766;2023-07-20T08:30:05;95487.22;;;22.46;56.13
13407;BME280;6774;48.208;10.766;2023-07-20T08:32:34;95493.47;;;22.51;53.83
13407;BME280;6774;48.208;10.766;2023-07-20T08:35:02;95509.63;;;22.61;53.76
13407;BME280;6774;48.208;10.766;2023-07-20T08:37:30;95490.81;;;22.61;53.90
13407;BME280;6774;48.208;10.766;2023-07-20T08:39:59;95492.81;;;22.91;50.93
13407;BME280;6774;48.208;10.766;2023-07-20T08:42:27;95492.22;;;22.79;51.80
13407;BME280;6774;48.208;10.766;2023-07-20T08:44:56;95498.34;;;22.64;52.83
13407;BME280;6774;48.208;10.766;2023-07-20T08:47:25;95498.75;;;23.09;49.31
13407;BME280;6774;48.208;10.766;2023-07-20T08:49:54;95489.63;;;23.20;49.97
13407;BME280;6774;48.208;10.766;2023-07-20T08:52:23;95488.53;;;22.95;51.90
13407;BME280;6774;48.208;10.766;2023-07-20T08:54:51;95491.22;;;23.21;50.22
13407;BME280;6774;48.208;10.766;2023-07-20T08:57:22;95487.28;;;23.69;50.72
13407;BME280;6774;48.208;10.766;2023-07-20T08:59:51;95484.72;;;24.29;51.42
13407;BME280;6774;48.208;10.766;2023-07-20T09:02:21;95480.59;;;24.57;51.81
13407;BME280;6774;48.208;10.766;2023-07-20T09:04:51;95484.47;;;24.25;49.75
13407;BME280;6774;48.208;10.766;2023-07-20T09:07:20;95480.53;;;23.62;50.57
13407;BME280;6774;48.208;10.766;2023-07-20T09:09:47;95472.94;;;23.28;52.47
13407;BME280;6774;48.208;10.766;2023-07-20T09:12:15;95476.19;;;23.76;50.90
13407;BME280;6774;48.208;10.766;2023-07-20T09:14:45;95476.19;;;23.76;50.79
13407;BME280;6774;48.208;10.766;2023-07-20T09:17:13;95469.75;;;23.72;50.43
13407;BME280;6774;48.208;10.766;2023-07-20T09:19:46;95473.25;;;23.72;51.99
13407;BME280;6774;48.208;10.766;2023-07-20T09:22:14;95471.56;;;24.17;51.33
13407;BME280;6774;48.208;10.766;2023-07-20T09:24:44;95466.28;;;24.61;49.50
13407;BME280;6774;48.208;10.766;2023-07-20T09:27:12;95465.97;;;23.52;49.61
13407;BME280;6774;48.208;10.766;2023-07-20T09:29:51;95458.09;;;24.02;49.75
13407;BME280;6774;48.208;10.766;2023-07-20T09:32:20;95447.06;;;23.98;50.50
13407;BME280;6774;48.208;10.766;2023-07-20T09:34:52;95463.25;;;23.88;50.87
13407;BME280;6774;48.208;10.766;2023-07-20T09:37:20;95454.94;;;24.64;50.62
13407;BME280;6774;48.208;10.766;2023-07-20T09:39:51;95464.56;;;24.81;49.48
13407;BME280;6774;48.208;10.766;2023-07-20T09:42:22;95456.63;;;25.44;48.59
13407;BME280;6774;48.208;10.766;2023-07-20T09:44:56;95451.97;;;26.36;47.41
13407;BME280;6774;48.208;10.766;2023-07-20T09:47:24;95458.63;;;25.62;47.09
13407;BME280;6774;48.208;10.766;2023-07-20T09:49:58;95457.44;;;25.00;49.99
13407;BME280;6774;48.208;10.766;2023-07-20T09:52:31;95465.56;;;24.30;50.40
13407;BME280;6774;48.208;10.766;2023-07-20T09:55:03;95468.06;;;24.01;50.18
13407;BME280;6774;48.208;10.766;2023-07-20T09:57:32;95464.22;;;24.28;51.13
13407;BME280;6774;48.208;10.766;2023-07-20T10:00:03;95451.97;;;24.66;49.43
13407;BME280;6774;48.208;10.766;2023-07-20T10:02:41;95458.00;;;24.97;49.06
13407;BME280;6774;48.208;10.766;2023-07-20T10:05:12;95455.13;;;24.08;50.38
13407;BME280;6774;48.208;10.766;2023-07-20T10:07:44;95461.91;;;23.96;50.35
13407;BME280;6774;48.208;10.766;2023-07-20T10:10:14;95462.16;;;23.99;50.53
13407;BME280;6774;48.208;10.766;2023-07-20T10:12:45;95455.69;;;23.19;50.69
13407;BME280;6774;48.208;10.766;2023-07-20T10:15:19;95455.44;;;23.15;50.77
13407;BME280;6774;48.208;10.766;2023-07-20T10:18:02;95446.03;;;23.43;50.56
13407;BME280;6774;48.208;10.766;2023-07-20T10:20:33;95451.94;;;23.30;51.49
13407;BME280;6774;48.208;10.766;2023-07-20T10:23:04;95447.63;;;23.44;50.43
13407;BME280;6774;48.208;10.766;2023-07-20T10:25:32;95447.34;;;23.10;51.58
13407;BME280;6774;48.208;10.766;2023-07-20T10:28:05;95442.69;;;22.80;52.45
13407;BME280;6774;48.208;10.766;2023-07-20T10:30:36;95441.72;;;23.07;51.55
13407;BME280;6774;48.208;10.766;2023-07-20T10:33:04;95441.72;;;23.17;50.86
13407;BME280;6774;48.208;10.766;2023-07-20T10:35:50;95440.38;;;23.35;50.50
13407;BME280;6774;48.208;10.766;2023-07-20T10:38:18;95433.59;;;23.93;51.94
13407;BME280;6774;48.208;10.766;2023-07-20T10:40:56;95429.56;;;23.91;49.45
13407;BME280;6774;48.208;10.766;2023-07-20T10:43:23;95445.97;;;23.94;49.63
13407;BME280;6774;48.208;10.766;2023-07-20T10:45:53;95433.63;;;23.73;49.32
13407;BME280;6774;48.208;10.766;2023-07-20T10:48:23;95428.66;;;24.21;50.78
13407;BME280;6774;48.208;10.766;2023-07-20T10:51:12;95426.88;;;23.75;50.68
13407;BME280;6774;48.208;10.766;2023-07-20T10:53:40;95427.06;;;24.04;50.69
13407;BME280;6774;48.208;10.766;2023-07-20T10:56:11;95422.44;;;24.25;49.85
13407;BME280;6774;48.208;10.766;2023-07-20T10:58:40;95411.09;;;24.28;49.67
13407;BME280;6774;48.208;10.766;2023-07-20T11:01:13;95421.19;;;23.92;50.72
13407;BME280;6774;48.208;10.766;2023-07-20T11:03:42;95417.50;;;23.32;52.05
13407;BME280;6774;48.208;10.766;2023-07-20T11:06:30;95416.09;;;23.86;50.68
13407;BME280;6774;48.208;10.766;2023-07-20T11:09:04;95418.22;;;23.94;50.81
13407;BME280;6774;48.208;10.766;2023-07-20T11:11:36;95415.06;;;23.61;51.71
13407;BME280;6774;48.208;10.766;2023-07-20T11:14:05;95414.25;;;23.61;51.77
13407;BME280;6774;48.208;10.766;2023-07-20T11:16:37;95414.72;;;23.98;52.02
13407;BME280;6774;48.208;10.766;2023-07-20T11:19:06;95408.28;;;23.84;51.67
13407;BME280;6774;48.208;10.766;2023-07-20T11:21:37;95402.84;;;23.94;51.15
13407;BME280;6774;48.208;10.766;2023-07-20T11:24:25;95391.91;;;24.45;50.68
13407;BME280;6774;48.208;10.766;2023-07-20T11:26:54;95385.22;;;24.82;50.48
13407;BME280;6774;48.208;10.766;2023-07-20T11:29:22;95385.72;;;25.23;49.20
13407;BME280;6774;48.208;10.766;2023-07-20T11:32:00;95380.94;;;24.76;48.81
13407;BME280;6774;48.208;10.766;2023-07-20T11:34:31;95390.50;;;25.02;49.57
13407;BME280;6774;48.208;10.766;2023-07-20T11:37:00;95393.69;;;25.09;48.74
13407;BME280;6774;48.208;10.766;2023-07-20T11:39:32;95389.53;;;24.78;50.61
13407;BME280;6774;48.208;10.766;2023-07-20T11:41:59;95387.84;;;24.92;48.60
13407;BME280;6774;48.208;10.766;2023-07-20T11:44:28;95377.72;;;25.42;50.11
13407;BME280;6774;48.208;10.766;2023-07-20T11:47:03;95382.28;;;24.19;50.87
13407;BME280;6774;48.208;10.766;2023-07-20T11:49:34;95383.03;;;24.84;50.78
13407;BME280;6774;48.208;10.766;2023-07-20T11:52:03;95381.72;;;24.81;50.50
13407;BME280;6774;48.208;10.766;2023-07-20T11:54:32;95381.19;;;24.79;49.80
13407;BME280;6774;48.208;10.766;2023-07-20T11:57:01;95374.50;;;24.66;51.03
13407;BME280;6774;48.208;10.766;2023-07-20T11:59:29;95379.81;;;24.37;50.40
13407;BME280;6774;48.208;10.766;2023-07-20T12:01:58;95380.16;;;24.10;50.80
13407;BME280;6774;48.208;10.766;2023-07-20T12:04:30;95374.25;;;24.08;50.15
13407;BME280;6774;48.208;10.766;2023-07-20T12:06:58;95369.56;;;24.34;50.59
13407;BME280;6774;48.208;10.766;2023-07-20T12:09:26;95370.94;;;24.27;50.44
13407;BME280;6774;48.208;10.766;2023-07-20T12:12:12;95364.50;;;24.72;50.27
13407;BME280;6774;48.208;10.766;2023-07-20T12:14:39;95361.34;;;24.99;51.32
13407;BME280;6774;48.208;10.766;2023-07-20T12:17:08;95359.06;;;25.16;52.38
13407;BME280;6774;48.208;10.766;2023-07-20T12:19:39;95350.06;;;25.26;49.19
13407;BME280;6774;48.208;10.766;2023-07-20T12:22:07;95355.66;;;25.35;49.50
13407;BME280;6774;48.208;10.766;2023-07-20T12:24:35;95347.53;;;25.64;49.10
13407;BME280;6774;48.208;10.766;2023-07-20T12:27:04;95345.00;;;26.01;48.21
13407;BME280;6774;48.208;10.766;2023-07-20T12:29:31;95337.25;;;25.66;49.40
13407;BME280;6774;48.208;10.766;2023-07-20T12:32:03;95345.69;;;25.59;50.58
13407;BME280;6774;48.208;10.766;2023-07-20T12:34:31;95342.19;;;25.30;50.08
13407;BME280;6774;48.208;10.766;2023-07-20T12:37:03;95337.09;;;24.55;50.42
13407;BME280;6774;48.208;10.766;2023-07-20T12:39:30;95327.44;;;24.83;51.05
13407;BME280;6774;48.208;10.766;2023-07-20T12:41:59;95331.41;;;25.30;50.51
13407;BME280;6774;48.208;10.766;2023-07-20T12:44:27;95331.38;;;25.35;51.02
13407;BME280;6774;48.208;10.766;2023-07-20T12:46:55;95327.41;;;25.51;48.66
13407;BME280;6774;48.208;10.766;2023-07-20T12:49:23;95323.19;;;25.93;50.56
13407;BME280;6774;48.208;10.766;2023-07-20T12:51:50;95325.16;;;25.58;48.69
13407;BME280;6774;48.208;10.766;2023-07-20T12:54:19;95322.84;;;25.75;47.09
13407;BME280;6774;48.208;10.766;2023-07-20T12:56:47;95315.34;;;25.43;48.39
13407;BME280;6774;48.208;10.766;2023-07-20T12:59:18;95313.88;;;25.80;49.24
13407;BME280;6774;48.208;10.766;2023-07-20T13:01:45;95319.16;;;25.37;47.14
13407;BME280;6774;48.208;10.766;2023-07-20T13:04:13;95298.66;;;26.08;47.72
13407;BME280;6774;48.208;10.766;2023-07-20T13:06:41;95305.03;;;25.74;48.72
13407;BME280;6774;48.208;10.766;2023-07-20T13:09:09;95308.75;;;25.26;46.89
13407;BME280;6774;48.208;10.766;2023-07-20T13:11:38;95310.63;;;25.54;49.15
13407;BME280;6774;48.208;10.766;2023-07-20T13:14:06;95309.94;;;25.67;48.28
13407;BME280;6774;48.208;10.766;2023-07-20T13:16:34;95292.41;;;25.12;47.31